Time;durP1;ratioP1;P1;durP2;ratioP2;P2;SDS_P1;SDS_P2;PMS_P1;PMS_P2;Temp;Humidity;BMP_temperature;BMP_pressure;BME280_temperature;BME280_humidity;BME280_pressure;Samples;Min_cycle;Max_cycle;Signal;HPM_P1;HPM_P2
2023/10/09 00:01:14;;;;;;;1999.90;999.90;;;;;;;14.39;100.00;95833.06;5067457;28;20177;-47
2023/10/09 00:03:51;;;;;;;1999.90;999.90;;;;;;;14.36;100.00;95825.66;5067367;28;20161;-46
2023/10/09 00:06:23;;;;;;;1999.90;999.90;;;;;;;14.34;100.00;95825.28;5067176;28;20237;-48
2023/10/09 00:08:53;;;;;;;1999.90;999.90;;;;;;;14.32;100.00;95822.22;5067225;28;20188;-48
2023/10/09 00:11:19;;;;;;;1999.90;999.90;;;;;;;14.31;100.00;95815.13;5067351;28;20265;-47
2023/10/09 00:13:50;;;;;;;1999.90;999.90;;;;;;;14.28;100.00;95813.22;5066635;28;20178;-49
2023/10/09 00:16:17;;;;;;;1999.90;999.90;;;;;;;14.26;100.00;95807.38;5067022;28;20170;-47
2023/10/09 00:18:46;;;;;;;1999.90;999.90;;;;;;;14.24;100.00;95798.75;5067000;28;20224;-46
2023/10/09 00:21:22;;;;;;;1999.90;999.90;;;;;;;14.21;100.00;95799.59;5066901;28;20174;-46
2023/10/09 00:24:13;;;;;;;1999.90;999.90;;;;;;;14.21;100.00;95787.81;5066946;28;20284;-52
2023/10/09 00:26:43;;;;;;;1999.90;999.90;;;;;;;14.23;100.00;95780.72;5067247;28;20173;-52
2023/10/09 00:29:14;;;;;;;1999.90;999.90;;;;;;;14.24;100.00;95771.28;5066864;28;20517;-55
2023/10/09 00:31:49;;;;;;;1999.90;999.90;;;;;;;14.27;100.00;95769.69;5066797;28;20201;-46
2023/10/09 00:34:19;;;;;;;1999.90;999.90;;;;;;;14.25;100.00;95761.88;5066562;28;20169;-46
2023/10/09 00:36:51;;;;;;;1999.90;999.90;;;;;;;14.27;100.00;95764.22;5067002;28;20170;-46
2023/10/09 00:39:33;;;;;;;1999.90;999.90;;;;;;;14.30;100.00;95757.84;5066598;28;20166;-49
2023/10/09 00:42:00;;;;;;;1999.90;999.90;;;;;;;14.32;100.00;95745.28;5065937;28;20166;-48
2023/10/09 00:44:37;;;;;;;1999.90;999.90;;;;;;;14.34;100.00;95753.84;5066439;28;20180;-46
2023/10/09 00:47:22;;;;;;;1999.90;999.90;;;;;;;14.35;100.00;95760.91;5066543;28;20177;-46
2023/10/09 00:50:00;;;;;;;1999.90;999.90;;;;;;;14.37;100.00;95757.72;5066414;28;20244;-48
2023/10/09 00:52:40;;;;;;;1999.90;999.90;;;;;;;14.39;100.00;95761.63;5066239;28;20443;-46
2023/10/09 00:55:20;;;;;;;1999.90;999.90;;;;;;;14.39;100.00;95756.13;5066125;28;20517;-46
2023/10/09 00:57:50;;;;;;;1999.90;999.90;;;;;;;14.43;100.00;95754.13;5065466;28;20185;-47
2023/10/09 01:01:04;;;;;;;1999.90;999.90;;;;;;;14.46;100.00;95760.75;5066186;28;20170;-46
2023/10/09 01:05:58;;;;;;;1999.90;999.90;;;;;;;14.53;100.00;95753.13;5066655;28;20206;-47
2023/10/09 01:08:29;;;;;;;1999.90;999.90;;;;;;;14.54;100.00;95760.19;5066167;28;20166;-47
2023/10/09 01:11:08;;;;;;;1999.90;999.90;;;;;;;14.53;100.00;95761.38;5066088;28;20204;-51
2023/10/09 01:14:11;;;;;;;1999.90;999.90;;;;;;;14.56;100.00;95768.78;5066045;28;20166;-52
2023/10/09 01:16:25;;;;;;;1999.90;999.90;;;;;;;14.55;100.00;95760.97;5063122;28;20206;-51
2023/10/09 01:18:58;;;;;;;1999.90;999.90;;;;;;;14.55;100.00;95758.22;5065625;28;20177;-52
2023/10/09 01:21:24;;;;;;;1999.90;999.90;;;;;;;14.54;100.00;95757.44;5065239;28;20249;-52
2023/10/09 01:26:47;;;;;;;1999.90;999.90;;;;;;;14.53;100.00;95755.88;5066629;28;20510;-46
2023/10/09 01:29:20;;;;;;;1999.90;999.90;;;;;;;14.55;100.00;95756.25;5065385;28;20166;-46
2023/10/09 01:32:00;;;;;;;1999.90;999.90;;;;;;;14.56;100.00;95749.53;5065601;28;20209;-47
2023/10/09 01:34:38;;;;;;;1999.90;999.90;;;;;;;14.58;100.00;95747.16;5065621;28;20177;-46
2023/10/09 01:37:28;;;;;;;1999.90;999.90;;;;;;;14.61;100.00;95751.03;5065796;28;20244;-46
2023/10/09 01:39:59;;;;;;;1999.90;999.90;;;;;;;14.65;100.00;95752.53;5065534;28;20184;-46
2023/10/09 01:42:34;;;;;;;1999.90;999.90;;;;;;;14.68;100.00;95750.91;5065500;28;20186;-46
2023/10/09 01:45:26;;;;;;;1999.90;999.90;;;;;;;14.69;100.00;95742.25;5065346;28;20208;-49
2023/10/09 01:47:51;;;;;;;1999.90;999.90;;;;;;;14.72;100.00;95741.38;5066075;28;20170;-46
2023/10/09 01:50:35;;;;;;;1999.90;999.90;;;;;;;14.71;100.00;95745.34;5064750;28;20303;-47
2023/10/09 01:53:05;;;;;;;1999.90;999.90;;;;;;;14.71;100.00;95747.34;5065225;28;20201;-45
2023/10/09 01:55:35;;;;;;;1999.90;999.90;;;;;;;14.68;100.00;95746.19;5065180;28;20166;-43
2023/10/09 02:00:49;;;;;;;1999.90;999.90;;;;;;;14.61;100.00;95746.31;5065737;28;20545;-44
2023/10/09 02:03:15;;;;;;;1999.90;999.90;;;;;;;14.61;100.00;95743.56;5064056;28;20232;-45
2023/10/09 02:05:44;;;;;;;1999.90;999.90;;;;;;;14.61;100.00;95740.81;5064029;28;20582;-46
2023/10/09 02:08:11;;;;;;;1999.90;999.90;;;;;;;14.57;100.00;95737.34;5064898;28;20199;-44
2023/10/09 02:10:37;;;;;;;1999.90;999.90;;;;;;;14.57;100.00;95731.09;5064070;28;20196;-44
2023/10/09 02:13:09;;;;;;;1999.90;999.90;;;;;;;14.57;100.00;95723.59;5064341;28;20421;-44
2023/10/09 02:18:18;;;;;;;1999.90;999.90;;;;;;;14.58;100.00;95719.69;5065325;28;20154;-44
2023/10/09 02:20:45;;;;;;;1999.90;999.90;;;;;;;14.57;100.00;95715.34;5064757;28;20161;-43
2023/10/09 02:23:20;;;;;;;1999.90;999.90;;;;;;;14.57;100.00;95718.09;5063895;28;20197;-46
2023/10/09 02:25:46;;;;;;;1999.90;999.90;;;;;;;14.58;100.00;95710.66;5064264;28;20211;-44
2023/10/09 02:28:18;;;;;;;1999.90;999.90;;;;;;;14.57;100.00;95709.88;5064034;28;20169;-44
2023/10/09 02:30:47;;;;;;;1999.90;999.90;;;;;;;14.56;100.00;95705.56;5064530;28;20170;-44
2023/10/09 02:33:27;;;;;;;1999.90;999.90;;;;;;;14.57;100.00;95712.59;5063687;28;20174;-48
2023/10/09 02:35:53;;;;;;;1999.90;999.90;;;;;;;14.60;100.00;95711.00;5064586;28;20237;-46
2023/10/09 02:38:22;;;;;;;1999.90;999.90;;;;;;;14.60;100.00;95722.78;5064167;28;20190;-46
2023/10/09 02:43:40;;;;;;;1999.90;999.90;;;;;;;14.58;100.00;95719.69;5064982;28;20146;-46
2023/10/09 02:48:46;;;;;;;1999.90;999.90;;;;;;;14.52;100.00;95721.34;5064946;28;20157;-49
2023/10/09 02:51:21;;;;;;;1999.90;999.90;;;;;;;14.51;100.00;95725.31;5063394;28;20224;-48
2023/10/09 02:53:49;;;;;;;1999.90;999.90;;;;;;;14.46;100.00;95725.75;5064355;28;20165;-45
2023/10/09 02:56:17;;;;;;;1999.90;999.90;;;;;;;14.45;100.00;95718.72;5063819;28;20170;-46
2023/10/09 02:58:43;;;;;;;1999.90;999.90;;;;;;;14.46;100.00;95717.53;5063760;28;20194;-46
2023/10/09 03:01:13;;;;;;;1999.90;999.90;;;;;;;14.49;100.00;95719.44;5063665;28;20201;-46
2023/10/09 03:03:45;;;;;;;1999.90;999.90;;;;;;;14.51;100.00;95719.03;5063778;28;20173;-46
2023/10/09 03:06:12;;;;;;;1999.90;999.90;;;;;;;14.52;100.00;95721.34;5063946;28;20252;-51
2023/10/09 03:08:38;;;;;;;1999.90;999.90;;;;;;;14.52;100.00;95726.06;5064130;28;20169;-49
2023/10/09 03:11:05;;;;;;;1999.90;999.90;;;;;;;14.50;100.00;95723.72;5063751;28;20232;-48
2023/10/09 03:13:33;;;;;;;1999.90;999.90;;;;;;;14.48;100.00;95728.88;5063608;28;20176;-48
2023/10/09 03:15:58;;;;;;;1999.90;999.90;;;;;;;14.48;100.00;95731.63;5064605;28;20194;-49
2023/10/09 03:18:24;;;;;;;1999.90;999.90;;;;;;;14.47;100.00;95730.09;5068194;28;20181;-48
2023/10/09 03:20:50;;;;;;;1999.90;999.90;;;;;;;14.47;100.00;95721.84;5067653;28;20215;-49
2023/10/09 03:23:15;;;;;;;1999.90;999.90;;;;;;;14.48;100.00;95725.34;5067569;28;20193;-47
2023/10/09 03:25:45;;;;;;;1999.90;999.90;;;;;;;14.48;100.00;95717.91;5068216;28;20220;-48
2023/10/09 03:28:12;;;;;;;1999.90;999.90;;;;;;;14.45;100.00;95713.22;5067442;28;20170;-48
2023/10/09 03:30:40;;;;;;;1999.90;999.90;;;;;;;14.47;100.00;95718.31;5067313;28;20174;-48
2023/10/09 03:33:06;;;;;;;1999.90;999.90;;;;;;;14.43;100.00;95712.88;5067415;28;20170;-48
2023/10/09 03:35:34;;;;;;;1999.90;999.90;;;;;;;14.44;100.00;95717.19;5068173;28;20216;-49
2023/10/09 03:38:02;;;;;;;1999.90;999.90;;;;;;;14.45;100.00;95713.22;5067011;28;20233;-46
2023/10/09 03:40:27;;;;;;;1999.90;999.90;;;;;;;14.43;100.00;95712.88;5067171;28;20172;-47
2023/10/09 03:42:53;;;;;;;1999.90;999.90;;;;;;;14.47;100.00;95719.09;5067236;28;20259;-46
2023/10/09 03:45:27;;;;;;;1999.90;999.90;;;;;;;14.47;100.00;95719.09;5067738;28;20177;-46
2023/10/09 03:47:58;;;;;;;1999.90;999.90;;;;;;;14.49;100.00;95713.94;5067629;28;20192;-47
2023/10/09 03:50:26;;;;;;;1999.90;999.90;;;;;;;14.49;100.00;95722.19;5067728;28;20201;-46
2023/10/09 03:52:53;;;;;;;1999.90;999.90;;;;;;;14.49;100.00;95722.19;5066879;28;20212;-48
2023/10/09 03:55:19;;;;;;;1999.90;999.90;;;;;;;14.47;100.00;95727.34;5067389;28;20174;-46
2023/10/09 03:57:45;;;;;;;1999.90;999.90;;;;;;;14.46;100.00;95716.75;5067623;28;20190;-46
2023/10/09 04:00:27;;;;;;;1999.90;999.90;;;;;;;14.45;100.00;95715.19;5066756;28;20216;-50
2023/10/09 04:02:52;;;;;;;1999.90;999.90;;;;;;;14.40;100.00;95721.97;5067618;28;20170;-50
2023/10/09 04:05:18;;;;;;;1999.90;999.90;;;;;;;14.39;100.00;95717.66;5066558;28;20220;-47
2023/10/09 04:07:43;;;;;;;1999.90;999.90;;;;;;;14.35;100.00;95716.94;5067238;28;20174;-47
2023/10/09 04:12:53;;;;;;;1999.90;999.90;;;;;;;14.27;100.00;95715.50;5067409;28;20204;-49
2023/10/09 04:15:22;;;;;;;1999.90;999.90;;;;;;;14.21;100.00;95714.44;5066491;28;20170;-47
2023/10/09 04:17:51;;;;;;;1999.90;999.90;;;;;;;14.15;100.00;95710.59;5066978;28;20235;-46
2023/10/09 04:22:51;;;;;;;1999.90;999.90;;;;;;;14.08;100.00;95702.47;5067446;28;20166;-46
2023/10/09 04:25:27;;;;;;;1999.90;999.90;;;;;;;14.03;100.00;95694.72;5066812;28;20171;-49
2023/10/09 04:28:29;;;;;;;1999.90;999.90;;;;;;;14.00;100.00;95695.56;5066504;28;20192;-48
2023/10/09 04:30:53;;;;;;;1999.90;999.90;;;;;;;13.97;100.00;95696.38;5065002;28;20264;-51
2023/10/09 04:33:28;;;;;;;1999.90;999.90;;;;;;;13.96;100.00;95692.09;5066693;28;20174;-49
2023/10/09 04:38:52;;;;;;;1999.90;999.90;;;;;;;13.92;100.00;95682.34;5066950;28;20165;-51
2023/10/09 04:41:27;;;;;;;1999.90;999.90;;;;;;;13.90;100.00;95685.50;5066776;28;20173;-48
2023/10/09 04:43:59;;;;;;;1999.90;999.90;;;;;;;13.89;100.00;95683.19;5066558;28;20170;-46
2023/10/09 04:46:31;;;;;;;1999.90;999.90;;;;;;;13.88;100.00;95682.38;5066477;28;20188;-47
2023/10/09 04:49:15;;;;;;;1999.90;999.90;;;;;;;13.89;100.00;95678.47;5066432;28;20197;-48
2023/10/09 04:51:58;;;;;;;1999.90;999.90;;;;;;;13.88;100.00;95681.63;5066301;28;20229;-47
2023/10/09 04:54:39;;;;;;;1999.90;999.90;;;;;;;13.93;100.00;95679.19;5066230;28;20197;-46
2023/10/09 04:57:04;;;;;;;1999.90;999.90;;;;;;;13.93;100.00;95684.69;5066177;28;20193;-47
2023/10/09 04:59:29;;;;;;;1999.90;999.90;;;;;;;13.90;100.00;95682.75;5066245;28;20185;-47
2023/10/09 05:01:58;;;;;;;1999.90;999.90;;;;;;;13.88;100.00;95684.38;5066178;28;20185;-46
2023/10/09 05:07:22;;;;;;;1999.90;999.90;;;;;;;13.84;100.00;95675.44;5066321;28;20216;-48
2023/10/09 05:10:07;;;;;;;1999.90;999.90;;;;;;;13.84;100.00;95673.44;5066666;28;20170;-47
2023/10/09 05:12:32;;;;;;;1999.90;999.90;;;;;;;13.84;100.00;95675.44;5065904;28;20198;-46
2023/10/09 05:15:12;;;;;;;1999.90;999.90;;;;;;;13.86;100.00;95675.78;5065251;28;20241;-47
2023/10/09 05:17:38;;;;;;;1999.90;999.90;;;;;;;13.87;100.00;95678.09;5065848;28;20208;-48
2023/10/09 05:23:15;;;;;;;1999.90;999.90;;;;;;;13.86;100.00;95684.78;4995286;28;20195;-47
2023/10/09 05:26:26;;;;;;;1999.90;999.90;;;;;;;13.90;100.00;95682.75;5065548;28;20181;-50
2023/10/09 05:28:52;;;;;;;1999.90;999.90;;;;;;;13.95;100.00;95698.75;5065796;28;20169;-52
2023/10/09 05:34:06;;;;;;;1999.90;999.90;;;;;;;14.00;100.00;95709.28;5028602;28;20426;-46
2023/10/09 05:36:35;;;;;;;1999.90;999.90;;;;;;;14.03;100.00;95705.72;5065420;28;20170;-49
2023/10/09 05:49:54;;;;;;;1999.90;999.90;;;;;;;14.40;100.00;95734.91;5065677;28;20217;-58
2023/10/09 06:03:23;;;;;;;1999.90;999.90;;;;;;;14.77;100.00;95732.66;5065394;28;20173;-54
2023/10/09 06:09:09;;;;;;;1999.90;999.90;;;;;;;14.94;100.00;95756.28;5065397;28;20173;-54
2023/10/09 06:14:04;;;;;;;1999.90;999.90;;;;;;;15.18;100.00;95752.28;5065200;28;20154;-55
2023/10/09 06:16:41;;;;;;;1999.90;999.90;;;;;;;15.37;100.00;95770.78;5064906;28;20296;-55
2023/10/09 06:24:22;;;;;;;1999.90;999.90;;;;;;;17.72;100.00;95811.84;5065438;28;20154;-53
2023/10/09 06:27:56;;;;;;;1999.90;999.90;;;;;;;18.26;100.00;95812.59;5064551;28;20169;-55
2023/10/09 06:35:30;;;;;;;1999.90;999.90;;;;;;;19.86;100.00;95817.81;5028852;28;20194;-51
2023/10/09 06:41:34;;;;;;;1999.90;999.90;;;;;;;18.98;100.00;95818.16;5064896;28;20192;-51
2023/10/09 06:45:55;;;;;;;1999.90;999.90;;;;;;;18.87;100.00;95814.97;5064819;28;20169;-53
2023/10/09 06:51:40;;;;;;;1999.90;999.90;;;;;;;19.02;100.00;95816.06;5064536;28;20153;-53
2023/10/09 06:54:06;;;;;;;1999.90;999.90;;;;;;;19.09;100.00;95818.59;5064373;28;20215;-51
2023/10/09 06:58:58;;;;;;;1999.90;999.90;;;;;;;19.15;100.00;95827.84;5064707;28;20209;-53
2023/10/09 07:03:52;;;;;;;1999.90;999.90;;;;;;;19.18;100.00;95824.19;5064609;28;20197;-52
2023/10/09 07:15:00;;;;;;;1999.90;999.90;;;;;;;19.34;100.00;95821.28;5064637;28;20170;-53
2023/10/09 07:23:17;;;;;;;1999.90;999.90;;;;;;;20.09;100.00;95845.06;5064581;28;20149;-52
2023/10/09 07:25:40;;;;;;;1999.90;999.90;;;;;;;20.45;100.00;95837.72;5060431;28;20178;-53
2023/10/09 07:28:18;;;;;;;1999.90;999.90;;;;;;;21.02;100.00;95842.56;5063910;28;20170;-55
2023/10/09 07:30:46;;;;;;;1999.90;999.90;;;;;;;21.56;100.00;95850.19;5064077;28;20158;-54
2023/10/09 07:35:57;;;;;;;1999.90;999.90;;;;;;;21.46;100.00;95860.53;5064329;28;20173;-53
2023/10/09 07:38:35;;;;;;;1999.90;999.90;;;;;;;22.78;100.00;95851.34;5063949;28;20177;-51
2023/10/09 07:43:45;;;;;;;1999.90;999.90;;;;;;;23.89;100.00;95850.47;5064191;28;20158;-53
2023/10/09 07:46:30;;;;;;;1999.90;999.90;;;;;;;25.94;100.00;95854.41;5063617;28;20170;-51
2023/10/09 07:48:56;;;;;;;1999.90;999.90;;;;;;;27.50;100.00;95850.41;5063680;28;20170;-48
2023/10/09 07:51:30;;;;;;;1999.90;999.90;;;;;;;27.05;98.29;95857.78;5063100;28;20198;-49
2023/10/09 07:53:57;;;;;;;1999.90;999.90;;;;;;;26.92;94.63;95846.22;5063159;28;20180;-52
2023/10/09 07:56:30;;;;;;;1999.90;999.90;;;;;;;27.39;91.32;95851.13;5063409;28;20176;-51
2023/10/09 07:59:00;;;;;;;1999.90;999.90;;;;;;;27.03;88.73;95851.91;5063314;28;20193;-53
2023/10/09 08:04:05;;;;;;;1999.90;999.90;;;;;;;26.10;92.85;95853.84;5067828;28;20165;-53
2023/10/09 08:06:39;;;;;;;1999.90;999.90;;;;;;;26.08;92.89;95865.56;5066622;28;20225;-51
2023/10/09 08:14:41;;;;;;;1999.90;999.90;;;;;;;24.96;100.00;95870.16;5067611;28;20167;-51
2023/10/09 08:19:53;;;;;;;1999.90;999.90;;;;;;;24.50;100.00;95871.13;5067557;28;20174;-49
2023/10/09 08:24:57;;;;;;;1999.90;999.90;;;;;;;23.80;100.00;95886.84;5067489;28;20170;-52
2023/10/09 08:32:42;;;;;;;1999.90;999.90;;;;;;;25.28;100.00;95874.66;5067208;28;20202;-52
2023/10/09 08:35:19;;;;;;;1999.90;999.90;;;;;;;25.53;98.58;95876.03;5066571;28;20186;-52
2023/10/09 08:37:48;;;;;;;1999.90;999.90;;;;;;;25.48;96.65;95876.75;5065916;28;20162;-47
2023/10/09 08:40:18;;;;;;;1999.90;999.90;;;;;;;25.75;94.09;95881.94;5066630;28;20177;-50
2023/10/09 08:42:51;;;;;;;1999.90;999.90;;;;;;;25.66;92.99;95876.47;5065974;28;20245;-47
2023/10/09 08:45:25;;;;;;;1999.90;999.90;;;;;;;25.41;97.88;95877.16;5066620;28;20166;-49
2023/10/09 08:47:54;;;;;;;1999.90;999.90;;;;;;;25.79;94.95;95874.13;5066496;28;20185;-46
2023/10/09 08:50:20;;;;;;;1999.90;999.90;;;;;;;25.94;92.60;95880.41;5065906;28;20166;-48
2023/10/09 08:52:48;;;;;;;1999.90;999.90;;;;;;;25.91;93.47;95881.38;5065812;28;20221;-48
2023/10/09 08:55:16;;;;;;;1999.90;999.90;;;;;;;25.52;93.10;95882.16;5065689;28;20211;-47
2023/10/09 08:57:44;;;;;;;1999.90;999.90;;;;;;;25.16;97.09;95888.97;5066017;28;20235;-51
2023/10/09 09:00:21;;;;;;;1999.90;999.90;;;;;;;24.65;100.00;95885.91;5065807;28;20193;-46
2023/10/09 09:02:47;;;;;;;1999.90;999.90;;;;;;;24.69;100.00;95883.69;5066182;28;20243;-51
2023/10/09 09:05:23;;;;;;;1999.90;999.90;;;;;;;24.26;100.00;95887.22;5065333;28;20182;-47
2023/10/09 09:07:49;;;;;;;1999.90;999.90;;;;;;;24.18;100.00;95883.28;5065372;28;20169;-49
2023/10/09 09:10:17;;;;;;;1999.90;999.90;;;;;;;24.27;100.00;95891.56;5066152;28;20176;-47
2023/10/09 09:12:43;;;;;;;1999.90;999.90;;;;;;;24.05;100.00;95888.34;5065519;28;20248;-50
2023/10/09 09:15:20;;;;;;;1999.90;999.90;;;;;;;23.86;100.00;95884.91;5064657;28;20174;-53
2023/10/09 09:17:50;;;;;;;1999.90;999.90;;;;;;;23.86;100.00;95884.16;5066317;28;20174;-48
2023/10/09 09:20:28;;;;;;;1999.90;999.90;;;;;;;23.96;100.00;95891.25;5065388;28;20174;-47
2023/10/09 09:22:57;;;;;;;1999.90;999.90;;;;;;;23.92;100.00;95893.38;5065870;28;20194;-52
2023/10/09 09:25:38;;;;;;;1999.90;999.90;;;;;;;23.86;100.00;95903.69;5065277;28;20174;-51
2023/10/09 09:28:12;;;;;;;1999.90;999.90;;;;;;;23.96;100.00;95891.25;5065651;28;20170;-50
2023/10/09 09:30:40;;;;;;;1999.90;999.90;;;;;;;24.00;100.00;95900.19;5065973;28;20170;-48
2023/10/09 09:33:26;;;;;;;1999.90;999.90;;;;;;;24.26;100.00;95898.41;5064865;28;20218;-49
2023/10/09 09:36:03;;;;;;;1999.90;999.90;;;;;;;24.28;100.00;95904.25;5065399;28;20224;-49
2023/10/09 09:38:41;;;;;;;1999.90;999.90;;;;;;;24.28;100.00;95907.06;5065581;28;20240;-48
2023/10/09 09:41:08;;;;;;;1999.90;999.90;;;;;;;24.26;100.00;95901.19;5065540;28;20201;-48
2023/10/09 09:43:36;;;;;;;1999.90;999.90;;;;;;;24.55;100.00;95896.38;5065358;28;20166;-51
2023/10/09 09:46:07;;;;;;;1999.90;999.90;;;;;;;24.58;100.00;95905.84;5064823;28;20170;-50
2023/10/09 09:48:39;;;;;;;1999.90;999.90;;;;;;;24.44;100.00;95901.00;5065294;28;20177;-52
2023/10/09 09:51:06;;;;;;;1999.90;999.90;;;;;;;24.44;100.00;95898.22;5065227;28;20170;-54
2023/10/09 09:53:34;;;;;;;1999.90;999.90;;;;;;;24.18;100.00;95902.81;5064745;28;20170;-51
2023/10/09 09:56:02;;;;;;;1999.90;999.90;;;;;;;24.40;100.00;95900.44;5064695;28;20268;-51
2023/10/09 09:58:32;;;;;;;1999.90;999.90;;;;;;;24.38;100.00;95897.34;5064976;28;20216;-51
2023/10/09 10:01:18;;;;;;;1999.90;999.90;;;;;;;24.27;100.00;95899.94;5065081;28;20245;-52
2023/10/09 10:03:51;;;;;;;1999.90;999.90;;;;;;;24.11;100.00;95906.00;5065293;28;20173;-47
2023/10/09 10:06:19;;;;;;;1999.90;999.90;;;;;;;24.52;100.00;95913.34;5064231;28;20217;-48
2023/10/09 10:08:50;;;;;;;1999.90;999.90;;;;;;;24.57;100.00;95909.84;5064757;28;20174;-48
2023/10/09 10:11:45;;;;;;;1999.90;999.90;;;;;;;24.24;100.00;95909.25;5064859;28;20192;-47
2023/10/09 10:14:31;;;;;;;1999.90;999.90;;;;;;;24.48;100.00;95898.78;5064572;28;20241;-46
2023/10/09 10:17:05;;;;;;;1999.90;999.90;;;;;;;24.60;99.83;95897.72;5064961;28;20200;-50
2023/10/09 10:22:50;;;;;;;1999.90;999.90;;;;;;;24.79;98.55;95904.66;5065362;28;20154;-50
2023/10/09 10:25:41;;;;;;;1999.90;999.90;;;;;;;24.88;96.11;95912.97;5064333;28;20165;-52
2023/10/09 10:28:16;;;;;;;1999.90;999.90;;;;;;;25.43;93.04;95905.44;5064645;28;20169;-53
2023/10/09 10:30:46;;;;;;;1999.90;999.90;;;;;;;25.49;90.28;95900.66;5064447;28;20172;-51
2023/10/09 10:33:15;;;;;;;1999.90;999.90;;;;;;;25.74;87.42;95905.59;5063918;28;20194;-52
2023/10/09 10:38:34;;;;;;;1999.90;999.90;;;;;;;25.66;88.23;95898.88;5065074;28;20166;-51
2023/10/09 10:41:13;;;;;;;1999.90;999.90;;;;;;;26.04;83.37;95895.78;5064523;28;20166;-53
2023/10/09 10:46:44;;;;;;;1999.90;999.90;;;;;;;25.65;81.80;95900.13;5036491;28;20223;-49
2023/10/09 10:51:38;;;;;;;1999.90;999.90;;;;;;;25.52;82.88;95882.91;5064480;28;20180;-49
2023/10/09 10:56:49;;;;;;;1999.90;999.90;;;;;;;25.26;81.40;95870.84;5064833;28;20169;-52
2023/10/09 10:59:22;;;;;;;1999.90;999.90;;;;;;;25.18;80.00;95883.69;5063583;28;20166;-52
2023/10/09 11:04:43;;;;;;;1999.90;999.90;;;;;;;25.03;82.10;95888.56;5064742;28;20149;-53
2023/10/09 11:15:46;;;;;;;1999.90;999.90;;;;;;;25.42;78.53;95884.28;5064659;28;20174;-52
2023/10/09 11:18:20;;;;;;;1999.90;999.90;;;;;;;25.34;76.85;95877.56;5064312;28;20166;-49
2023/10/09 11:21:22;;;;;;;1999.90;999.90;;;;;;;25.52;76.95;95877.31;5063298;28;20150;-50
2023/10/09 11:26:28;;;;;;;1999.90;999.90;;;;;;;25.60;76.15;95875.63;5064434;28;20220;-55
2023/10/09 11:32:09;;;;;;;1999.90;999.90;;;;;;;26.00;75.28;95864.44;5064408;28;20223;-54
2023/10/09 11:34:36;;;;;;;1999.90;999.90;;;;;;;26.37;73.86;95862.53;5063935;28;20166;-51
2023/10/09 11:37:11;;;;;;;1999.90;999.90;;;;;;;26.29;72.90;95869.09;5064403;28;20200;-52
2023/10/09 11:39:37;;;;;;;1999.90;999.90;;;;;;;26.48;71.80;95862.63;5067142;28;20165;-54
2023/10/09 11:42:07;;;;;;;1999.90;999.90;;;;;;;26.15;70.75;95867.16;5067736;28;20229;-50
2023/10/09 11:44:45;;;;;;;1999.90;999.90;;;;;;;26.30;68.63;95868.59;5067650;28;20185;-51
2023/10/09 11:52:38;;;;;;;1999.90;999.90;;;;;;;26.33;67.34;95856.38;5067843;28;20186;-48
2023/10/09 11:55:14;;;;;;;1999.90;999.90;;;;;;;26.23;67.31;95863.44;5067375;28;20185;-47
2023/10/09 11:57:40;;;;;;;1999.90;999.90;;;;;;;26.05;66.49;95860.94;5066631;28;20212;-51
2023/10/09 12:02:50;;;;;;;1999.90;999.90;;;;;;;25.69;70.63;95853.13;5067879;28;20200;-48
2023/10/09 12:05:18;;;;;;;1999.90;999.90;;;;;;;25.62;67.55;95864.72;5066801;28;21137;-47
2023/10/09 12:07:54;;;;;;;1999.90;999.90;;;;;;;25.37;67.35;95859.81;5066949;28;20170;-47
2023/10/09 12:10:25;;;;;;;1999.90;999.90;;;;;;;25.42;66.51;95856.31;5067177;28;20164;-53
2023/10/09 12:12:52;;;;;;;1999.90;999.90;;;;;;;25.66;66.56;95859.69;5067018;28;20194;-50
2023/10/09 12:15:17;;;;;;;1999.90;999.90;;;;;;;25.51;66.80;95863.81;5067026;28;20162;-48
2023/10/09 12:17:47;;;;;;;1999.90;999.90;;;;;;;25.38;67.76;95850.16;5066479;28;20220;-49
2023/10/09 12:20:31;;;;;;;1999.90;999.90;;;;;;;25.12;66.55;95854.88;5066927;28;20173;-52
2023/10/09 12:22:58;;;;;;;1999.90;999.90;;;;;;;25.28;67.13;95857.16;5066574;28;20158;-48
2023/10/09 12:25:24;;;;;;;1999.90;999.90;;;;;;;25.29;68.55;95853.88;5066311;28;20170;-51
2023/10/09 12:27:49;;;;;;;1999.90;999.90;;;;;;;25.16;67.47;95852.63;5066691;28;20166;-52
2023/10/09 12:30:15;;;;;;;1999.90;999.90;;;;;;;25.11;66.98;95853.34;5066261;28;20237;-52
2023/10/09 12:32:40;;;;;;;1999.90;999.90;;;;;;;25.07;67.47;95852.78;5066677;28;20273;-52
2023/10/09 12:35:17;;;;;;;1999.90;999.90;;;;;;;24.89;69.49;95853.00;5066236;28;20193;-51
2023/10/09 12:37:43;;;;;;;1999.90;999.90;;;;;;;24.78;70.78;95847.25;5066724;28;20162;-50
2023/10/09 12:40:10;;;;;;;1999.90;999.90;;;;;;;24.89;72.96;95853.00;5066144;28;20166;-51
2023/10/09 12:42:36;;;;;;;1999.90;999.90;;;;;;;24.79;72.37;95854.38;5066503;28;20190;-50
2023/10/09 12:45:08;;;;;;;1999.90;999.90;;;;;;;24.57;73.27;95867.94;5066443;28;20166;-54
2023/10/09 12:47:34;;;;;;;1999.90;999.90;;;;;;;24.23;76.36;95863.06;5065589;28;20166;-55
2023/10/09 12:49:59;;;;;;;1999.90;999.90;;;;;;;24.28;75.06;95860.34;5065919;28;20162;-54
2023/10/09 12:52:29;;;;;;;1999.90;999.90;;;;;;;24.06;76.06;95865.53;5066227;28;20217;-54
2023/10/09 12:54:55;;;;;;;1999.90;999.90;;;;;;;24.13;75.89;95872.75;5065443;28;20162;-53
2023/10/09 12:57:21;;;;;;;1999.90;999.90;;;;;;;24.08;76.63;95879.03;5065695;28;20204;-51
2023/10/09 12:59:48;;;;;;;1999.90;999.90;;;;;;;23.89;77.94;95883.19;5065534;28;20170;-53
2023/10/09 13:02:36;;;;;;;1999.90;999.90;;;;;;;23.79;77.41;95870.56;5066258;28;20162;-52
2023/10/09 13:05:03;;;;;;;1999.90;999.90;;;;;;;23.61;80.01;95857.53;5066250;28;20181;-54
2023/10/09 13:07:28;;;;;;;1999.90;999.90;;;;;;;23.58;81.75;95866.06;5066117;28;20249;-54
2023/10/09 13:10:09;;;;;;;1999.90;999.90;;;;;;;23.56;81.65;95857.44;5065500;28;20204;-53
2023/10/09 13:12:40;;;;;;;1999.90;999.90;;;;;;;23.56;82.48;95866.56;5066227;28;20217;-53
2023/10/09 13:15:09;;;;;;;1999.90;999.90;;;;;;;23.56;83.45;95865.81;5066056;28;20166;-51
2023/10/09 13:17:36;;;;;;;1999.90;999.90;;;;;;;23.39;82.18;95867.47;5065220;28;20166;-54
2023/10/09 13:20:13;;;;;;;1999.90;999.90;;;;;;;23.34;81.51;95871.66;5065230;28;20193;-53
2023/10/09 13:22:41;;;;;;;1999.90;999.90;;;;;;;23.33;81.64;95866.56;5065816;28;20161;-56
2023/10/09 13:25:16;;;;;;;1999.90;999.90;;;;;;;23.42;82.33;95870.06;5065778;28;20178;-51
2023/10/09 13:27:53;;;;;;;1999.90;999.90;;;;;;;23.22;84.51;95878.25;5065619;28;20189;-52
2023/10/09 13:30:23;;;;;;;1999.90;999.90;;;;;;;23.29;85.97;95880.69;5065760;28;20199;-51
2023/10/09 13:32:50;;;;;;;1999.90;999.90;;;;;;;23.20;88.62;95877.16;5065386;28;20198;-51
2023/10/09 13:35:19;;;;;;;1999.90;999.90;;;;;;;23.12;88.74;95870.41;5065569;28;20170;-50
2023/10/09 13:37:56;;;;;;;1999.90;999.90;;;;;;;23.31;89.42;95883.00;5064866;28;20187;-50
2023/10/09 13:40:28;;;;;;;1999.90;999.90;;;;;;;23.27;93.21;95880.38;5065574;28;20207;-51
2023/10/09 13:42:58;;;;;;;1999.90;999.90;;;;;;;23.11;93.77;95872.41;5065377;28;20174;-52
2023/10/09 13:45:28;;;;;;;1999.90;999.90;;;;;;;23.16;91.48;95871.00;5065415;28;20166;-50
2023/10/09 13:47:56;;;;;;;1999.90;999.90;;;;;;;22.97;92.02;95869.53;5064662;28;20162;-50
2023/10/09 13:50:24;;;;;;;1999.90;999.90;;;;;;;22.90;94.23;95865.06;5065088;28;20170;-51
2023/10/09 13:52:53;;;;;;;1999.90;999.90;;;;;;;22.88;94.62;95867.56;5064985;28;20265;-47